sensor_id;sensor_type;location;lat;lon;timestamp;P1;durP1;ratioP1;P2;durP2;ratioP2
9248;SDS011;4660;41.768;26.198;2023-12-07T00:01:21;46.60;;;26.53;;
9248;SDS011;4660;41.768;26.198;2023-12-07T00:03:47;49.07;;;26.70;;
9248;SDS011;4660;41.768;26.198;2023-12-07T00:06:12;46.20;;;25.73;;
9248;SDS011;4660;41.768;26.198;2023-12-07T00:08:38;42.80;;;24.47;;
9248;SDS011;4660;41.768;26.198;2023-12-07T00:11:04;43.33;;;25.57;;
9248;SDS011;4660;41.768;26.198;2023-12-07T00:13:29;45.37;;;26.43;;
9248;SDS011;4660;41.768;26.198;2023-12-07T00:15:55;47.40;;;24.37;;
9248;SDS011;4660;41.768;26.198;2023-12-07T00:18:20;51.60;;;25.20;;
9248;SDS011;4660;41.768;26.198;2023-12-07T00:20:46;50.13;;;25.33;;
9248;SDS011;4660;41.768;26.198;2023-12-07T00:23:11;53.30;;;25.13;;
9248;SDS011;4660;41.768;26.198;2023-12-07T00:25:37;44.70;;;25.43;;
9248;SDS011;4660;41.768;26.198;2023-12-07T00:28:03;44.17;;;25.87;;
9248;SDS011;4660;41.768;26.198;2023-12-07T00:30:29;53.63;;;28.43;;
9248;SDS011;4660;41.768;26.198;2023-12-07T00:32:54;53.00;;;29.27;;
9248;SDS011;4660;41.768;26.198;2023-12-07T00:35:20;63.03;;;29.80;;
9248;SDS011;4660;41.768;26.198;2023-12-07T00:37:47;68.33;;;31.97;;
9248;SDS011;4660;41.768;26.198;2023-12-07T00:40:13;61.90;;;31.00;;
9248;SDS011;4660;41.768;26.198;2023-12-07T00:42:39;58.90;;;30.90;;
9248;SDS011;4660;41.768;26.198;2023-12-07T00:45:05;56.80;;;30.63;;
9248;SDS011;4660;41.768;26.198;2023-12-07T00:47:31;58.17;;;29.93;;
9248;SDS011;4660;41.768;26.198;2023-12-07T00:49:56;52.50;;;27.40;;
9248;SDS011;4660;41.768;26.198;2023-12-07T00:52:22;61.97;;;30.40;;
9248;SDS011;4660;41.768;26.198;2023-12-07T00:54:48;56.53;;;28.63;;
9248;SDS011;4660;41.768;26.198;2023-12-07T00:57:13;56.47;;;29.43;;
9248;SDS011;4660;41.768;26.198;2023-12-07T00:59:39;56.87;;;26.53;;
9248;SDS011;4660;41.768;26.198;2023-12-07T01:02:04;57.60;;;29.10;;
9248;SDS011;4660;41.768;26.198;2023-12-07T01:04:31;58.73;;;29.53;;
9248;SDS011;4660;41.768;26.198;2023-12-07T01:06:57;54.70;;;28.13;;
9248;SDS011;4660;41.768;26.198;2023-12-07T01:09:23;58.27;;;30.20;;
9248;SDS011;4660;41.768;26.198;2023-12-07T01:11:49;72.03;;;32.17;;
9248;SDS011;4660;41.768;26.198;2023-12-07T01:14:15;64.70;;;32.17;;
9248;SDS011;4660;41.768;26.198;2023-12-07T01:16:42;74.73;;;31.60;;
9248;SDS011;4660;41.768;26.198;2023-12-07T01:19:08;68.13;;;32.47;;
9248;SDS011;4660;41.768;26.198;2023-12-07T01:21:34;62.27;;;32.00;;
9248;SDS011;4660;41.768;26.198;2023-12-07T01:24:00;62.23;;;30.10;;
9248;SDS011;4660;41.768;26.198;2023-12-07T01:26:25;66.47;;;31.23;;
9248;SDS011;4660;41.768;26.198;2023-12-07T01:28:51;63.50;;;30.63;;
9248;SDS011;4660;41.768;26.198;2023-12-07T01:31:17;59.53;;;28.87;;
9248;SDS011;4660;41.768;26.198;2023-12-07T01:33:43;74.30;;;31.83;;
9248;SDS011;4660;41.768;26.198;2023-12-07T01:36:09;70.67;;;31.47;;
9248;SDS011;4660;41.768;26.198;2023-12-07T01:38:36;59.90;;;28.73;;
9248;SDS011;4660;41.768;26.198;2023-12-07T01:41:01;64.97;;;29.53;;
9248;SDS011;4660;41.768;26.198;2023-12-07T01:43:27;56.90;;;28.37;;
9248;SDS011;4660;41.768;26.198;2023-12-07T01:45:53;64.97;;;31.67;;
9248;SDS011;4660;41.768;26.198;2023-12-07T01:48:22;59.60;;;29.43;;
9248;SDS011;4660;41.768;26.198;2023-12-07T01:50:49;64.43;;;31.83;;
9248;SDS011;4660;41.768;26.198;2023-12-07T01:53:15;57.60;;;28.73;;
9248;SDS011;4660;41.768;26.198;2023-12-07T01:55:41;56.67;;;28.87;;
9248;SDS011;4660;41.768;26.198;2023-12-07T01:58:07;56.07;;;28.10;;
9248;SDS011;4660;41.768;26.198;2023-12-07T02:00:33;53.53;;;26.17;;
9248;SDS011;4660;41.768;26.198;2023-12-07T02:03:00;56.63;;;28.87;;
9248;SDS011;4660;41.768;26.198;2023-12-07T02:05:28;55.37;;;29.47;;
9248;SDS011;4660;41.768;26.198;2023-12-07T02:07:54;57.20;;;27.00;;
9248;SDS011;4660;41.768;26.198;2023-12-07T02:10:19;46.23;;;27.07;;
9248;SDS011;4660;41.768;26.198;2023-12-07T02:12:45;54.33;;;29.33;;
9248;SDS011;4660;41.768;26.198;2023-12-07T02:15:12;50.07;;;27.40;;
9248;SDS011;4660;41.768;26.198;2023-12-07T02:20:12;56.33;;;28.20;;
9248;SDS011;4660;41.768;26.198;2023-12-07T02:22:54;56.77;;;28.27;;
9248;SDS011;4660;41.768;26.198;2023-12-07T02:25:26;50.80;;;27.30;;
9248;SDS011;4660;41.768;26.198;2023-12-07T02:27:57;54.97;;;27.60;;
9248;SDS011;4660;41.768;26.198;2023-12-07T02:30:23;54.43;;;27.13;;
9248;SDS011;4660;41.768;26.198;2023-12-07T02:32:48;51.87;;;28.50;;
9248;SDS011;4660;41.768;26.198;2023-12-07T02:35:14;55.53;;;28.27;;
9248;SDS011;4660;41.768;26.198;2023-12-07T02:37:44;53.27;;;28.17;;
9248;SDS011;4660;41.768;26.198;2023-12-07T02:40:12;47.00;;;27.40;;
9248;SDS011;4660;41.768;26.198;2023-12-07T02:42:40;48.97;;;24.20;;
9248;SDS011;4660;41.768;26.198;2023-12-07T02:45:08;56.90;;;27.60;;
9248;SDS011;4660;41.768;26.198;2023-12-07T02:47:35;51.80;;;27.80;;
9248;SDS011;4660;41.768;26.198;2023-12-07T02:50:02;57.13;;;28.70;;
9248;SDS011;4660;41.768;26.198;2023-12-07T02:52:29;51.60;;;29.10;;
9248;SDS011;4660;41.768;26.198;2023-12-07T02:54:55;54.57;;;29.53;;
9248;SDS011;4660;41.768;26.198;2023-12-07T02:57:20;52.87;;;27.10;;
9248;SDS011;4660;41.768;26.198;2023-12-07T02:59:46;55.63;;;27.07;;
9248;SDS011;4660;41.768;26.198;2023-12-07T03:02:11;46.50;;;23.80;;
9248;SDS011;4660;41.768;26.198;2023-12-07T03:04:37;43.87;;;24.20;;
9248;SDS011;4660;41.768;26.198;2023-12-07T03:07:03;48.23;;;23.57;;
9248;SDS011;4660;41.768;26.198;2023-12-07T03:09:28;34.90;;;19.00;;
9248;SDS011;4660;41.768;26.198;2023-12-07T03:11:54;42.67;;;22.90;;
9248;SDS011;4660;41.768;26.198;2023-12-07T03:14:21;34.23;;;17.27;;
9248;SDS011;4660;41.768;26.198;2023-12-07T03:16:46;40.77;;;21.90;;
9248;SDS011;4660;41.768;26.198;2023-12-07T03:19:12;41.97;;;22.70;;
9248;SDS011;4660;41.768;26.198;2023-12-07T03:21:41;47.10;;;24.07;;
9248;SDS011;4660;41.768;26.198;2023-12-07T03:24:08;43.73;;;22.43;;
9248;SDS011;4660;41.768;26.198;2023-12-07T03:26:34;46.23;;;23.50;;
9248;SDS011;4660;41.768;26.198;2023-12-07T03:29:00;49.43;;;24.60;;
9248;SDS011;4660;41.768;26.198;2023-12-07T03:31:25;51.80;;;25.13;;
9248;SDS011;4660;41.768;26.198;2023-12-07T03:33:52;58.70;;;25.63;;
9248;SDS011;4660;41.768;26.198;2023-12-07T03:36:18;53.83;;;25.20;;
9248;SDS011;4660;41.768;26.198;2023-12-07T03:38:43;58.43;;;25.97;;
9248;SDS011;4660;41.768;26.198;2023-12-07T03:41:09;60.20;;;26.83;;
9248;SDS011;4660;41.768;26.198;2023-12-07T03:43:34;66.23;;;27.93;;
9248;SDS011;4660;41.768;26.198;2023-12-07T03:46:03;65.10;;;27.30;;
9248;SDS011;4660;41.768;26.198;2023-12-07T03:48:29;73.33;;;29.40;;
9248;SDS011;4660;41.768;26.198;2023-12-07T03:50:54;72.83;;;30.07;;
9248;SDS011;4660;41.768;26.198;2023-12-07T03:53:20;72.83;;;29.53;;
9248;SDS011;4660;41.768;26.198;2023-12-07T03:55:46;85.67;;;32.60;;
9248;SDS011;4660;41.768;26.198;2023-12-07T03:58:11;77.57;;;32.37;;
9248;SDS011;4660;41.768;26.198;2023-12-07T04:00:38;76.67;;;31.40;;
9248;SDS011;4660;41.768;26.198;2023-12-07T04:03:04;78.90;;;30.17;;
9248;SDS011;4660;41.768;26.198;2023-12-07T04:05:30;93.43;;;30.73;;
9248;SDS011;4660;41.768;26.198;2023-12-07T04:07:57;79.13;;;31.07;;
9248;SDS011;4660;41.768;26.198;2023-12-07T04:10:22;83.23;;;32.03;;
9248;SDS011;4660;41.768;26.198;2023-12-07T04:12:48;80.80;;;32.73;;
9248;SDS011;4660;41.768;26.198;2023-12-07T04:15:14;83.90;;;33.43;;
9248;SDS011;4660;41.768;26.198;2023-12-07T04:17:39;85.03;;;33.13;;
9248;SDS011;4660;41.768;26.198;2023-12-07T04:20:05;84.10;;;35.03;;
9248;SDS011;4660;41.768;26.198;2023-12-07T04:22:32;93.33;;;34.73;;
9248;SDS011;4660;41.768;26.198;2023-12-07T04:24:58;93.53;;;36.20;;
9248;SDS011;4660;41.768;26.198;2023-12-07T04:27:23;95.03;;;34.17;;
9248;SDS011;4660;41.768;26.198;2023-12-07T04:29:49;86.77;;;33.53;;
9248;SDS011;4660;41.768;26.198;2023-12-07T04:32:15;80.57;;;32.23;;
9248;SDS011;4660;41.768;26.198;2023-12-07T04:34:40;86.90;;;34.57;;
9248;SDS011;4660;41.768;26.198;2023-12-07T04:37:06;72.10;;;30.60;;
9248;SDS011;4660;41.768;26.198;2023-12-07T04:39:31;69.40;;;30.50;;
9248;SDS011;4660;41.768;26.198;2023-12-07T04:41:57;62.23;;;29.90;;
9248;SDS011;4660;41.768;26.198;2023-12-07T04:44:23;60.43;;;27.20;;
9248;SDS011;4660;41.768;26.198;2023-12-07T04:46:50;62.70;;;29.87;;
9248;SDS011;4660;41.768;26.198;2023-12-07T04:49:16;61.63;;;29.57;;
9248;SDS011;4660;41.768;26.198;2023-12-07T04:51:42;60.60;;;30.77;;
9248;SDS011;4660;41.768;26.198;2023-12-07T04:54:12;62.00;;;27.97;;
9248;SDS011;4660;41.768;26.198;2023-12-07T04:56:43;63.23;;;30.00;;
9248;SDS011;4660;41.768;26.198;2023-12-07T04:59:11;51.67;;;28.70;;
9248;SDS011;4660;41.768;26.198;2023-12-07T05:01:37;53.80;;;28.20;;
9248;SDS011;4660;41.768;26.198;2023-12-07T05:04:06;60.47;;;30.37;;
9248;SDS011;4660;41.768;26.198;2023-12-07T05:06:31;55.97;;;29.73;;
9248;SDS011;4660;41.768;26.198;2023-12-07T05:08:57;52.17;;;27.13;;
9248;SDS011;4660;41.768;26.198;2023-12-07T05:11:25;50.20;;;27.47;;
9248;SDS011;4660;41.768;26.198;2023-12-07T05:13:51;45.20;;;25.43;;
9248;SDS011;4660;41.768;26.198;2023-12-07T05:16:17;52.43;;;27.67;;
9248;SDS011;4660;41.768;26.198;2023-12-07T05:18:42;54.20;;;28.83;;
9248;SDS011;4660;41.768;26.198;2023-12-07T05:21:09;56.37;;;30.27;;
9248;SDS011;4660;41.768;26.198;2023-12-07T05:23:34;58.30;;;31.67;;
9248;SDS011;4660;41.768;26.198;2023-12-07T05:26:00;58.33;;;30.33;;
9248;SDS011;4660;41.768;26.198;2023-12-07T05:28:26;53.00;;;30.27;;
9248;SDS011;4660;41.768;26.198;2023-12-07T05:30:52;54.77;;;30.47;;
9248;SDS011;4660;41.768;26.198;2023-12-07T05:33:18;47.40;;;28.43;;
9248;SDS011;4660;41.768;26.198;2023-12-07T05:35:47;49.43;;;27.17;;
9248;SDS011;4660;41.768;26.198;2023-12-07T05:38:13;47.13;;;26.07;;
9248;SDS011;4660;41.768;26.198;2023-12-07T05:40:39;47.03;;;27.20;;
9248;SDS011;4660;41.768;26.198;2023-12-07T05:43:04;45.03;;;25.43;;
9248;SDS011;4660;41.768;26.198;2023-12-07T05:45:30;46.47;;;27.90;;
9248;SDS011;4660;41.768;26.198;2023-12-07T05:47:56;46.27;;;27.90;;
9248;SDS011;4660;41.768;26.198;2023-12-07T05:50:21;46.67;;;28.10;;
9248;SDS011;4660;41.768;26.198;2023-12-07T05:52:47;46.07;;;26.87;;
9248;SDS011;4660;41.768;26.198;2023-12-07T05:55:13;54.27;;;28.87;;
9248;SDS011;4660;41.768;26.198;2023-12-07T05:57:39;50.13;;;28.60;;
9248;SDS011;4660;41.768;26.198;2023-12-07T06:00:05;47.40;;;28.67;;
9248;SDS011;4660;41.768;26.198;2023-12-07T06:02:35;48.33;;;29.70;;
9248;SDS011;4660;41.768;26.198;2023-12-07T06:05:04;50.73;;;30.03;;
9248;SDS011;4660;41.768;26.198;2023-12-07T06:07:30;46.23;;;29.03;;
9248;SDS011;4660;41.768;26.198;2023-12-07T06:09:56;43.80;;;28.40;;
9248;SDS011;4660;41.768;26.198;2023-12-07T06:12:21;50.40;;;31.93;;
9248;SDS011;4660;41.768;26.198;2023-12-07T06:14:50;55.50;;;30.50;;
9248;SDS011;4660;41.768;26.198;2023-12-07T06:17:15;56.73;;;31.53;;
9248;SDS011;4660;41.768;26.198;2023-12-07T06:19:41;66.70;;;32.47;;
9248;SDS011;4660;41.768;26.198;2023-12-07T06:22:07;59.57;;;32.33;;
9248;SDS011;4660;41.768;26.198;2023-12-07T06:24:33;62.20;;;32.47;;
9248;SDS011;4660;41.768;26.198;2023-12-07T06:26:59;64.20;;;33.33;;
9248;SDS011;4660;41.768;26.198;2023-12-07T06:29:26;75.93;;;35.53;;
9248;SDS011;4660;41.768;26.198;2023-12-07T06:31:52;75.90;;;35.37;;
9248;SDS011;4660;41.768;26.198;2023-12-07T06:34:18;84.70;;;36.03;;
9248;SDS011;4660;41.768;26.198;2023-12-07T06:36:45;85.73;;;38.17;;
9248;SDS011;4660;41.768;26.198;2023-12-07T06:39:10;95.80;;;37.80;;
9248;SDS011;4660;41.768;26.198;2023-12-07T06:41:36;83.13;;;37.17;;
9248;SDS011;4660;41.768;26.198;2023-12-07T06:44:01;76.33;;;36.67;;
9248;SDS011;4660;41.768;26.198;2023-12-07T06:46:27;86.00;;;37.37;;
9248;SDS011;4660;41.768;26.198;2023-12-07T06:48:53;80.00;;;36.67;;
9248;SDS011;4660;41.768;26.198;2023-12-07T06:51:18;67.80;;;34.47;;
9248;SDS011;4660;41.768;26.198;2023-12-07T06:53:44;67.10;;;33.17;;
9248;SDS011;4660;41.768;26.198;2023-12-07T06:56:09;69.50;;;32.30;;
9248;SDS011;4660;41.768;26.198;2023-12-07T06:58:35;69.00;;;30.73;;
9248;SDS011;4660;41.768;26.198;2023-12-07T07:01:00;66.10;;;31.00;;
9248;SDS011;4660;41.768;26.198;2023-12-07T07:03:26;57.57;;;27.77;;
9248;SDS011;4660;41.768;26.198;2023-12-07T07:05:53;60.60;;;28.80;;
9248;SDS011;4660;41.768;26.198;2023-12-07T07:08:21;50.40;;;25.00;;
9248;SDS011;4660;41.768;26.198;2023-12-07T07:10:47;57.63;;;25.43;;
9248;SDS011;4660;41.768;26.198;2023-12-07T07:13:12;51.00;;;24.77;;
9248;SDS011;4660;41.768;26.198;2023-12-07T07:15:41;53.63;;;26.60;;
9248;SDS011;4660;41.768;26.198;2023-12-07T07:18:08;47.90;;;24.40;;
9248;SDS011;4660;41.768;26.198;2023-12-07T07:20:34;44.10;;;23.10;;
9248;SDS011;4660;41.768;26.198;2023-12-07T07:23:00;45.17;;;23.73;;
9248;SDS011;4660;41.768;26.198;2023-12-07T07:25:26;37.43;;;21.20;;
9248;SDS011;4660;41.768;26.198;2023-12-07T07:27:52;37.40;;;21.73;;
9248;SDS011;4660;41.768;26.198;2023-12-07T07:30:20;38.10;;;21.87;;
9248;SDS011;4660;41.768;26.198;2023-12-07T07:32:46;36.20;;;20.67;;
9248;SDS011;4660;41.768;26.198;2023-12-07T07:35:13;37.40;;;20.70;;
9248;SDS011;4660;41.768;26.198;2023-12-07T07:37:39;35.30;;;21.70;;
9248;SDS011;4660;41.768;26.198;2023-12-07T07:40:04;41.33;;;21.73;;
9248;SDS011;4660;41.768;26.198;2023-12-07T07:42:34;33.10;;;20.07;;
9248;SDS011;4660;41.768;26.198;2023-12-07T07:45:00;30.30;;;19.33;;
9248;SDS011;4660;41.768;26.198;2023-12-07T07:47:26;32.77;;;19.50;;
9248;SDS011;4660;41.768;26.198;2023-12-07T07:49:51;33.73;;;19.43;;
9248;SDS011;4660;41.768;26.198;2023-12-07T07:52:17;37.73;;;20.60;;
9248;SDS011;4660;41.768;26.198;2023-12-07T07:54:42;28.40;;;17.50;;
9248;SDS011;4660;41.768;26.198;2023-12-07T07:57:08;29.67;;;19.20;;
9248;SDS011;4660;41.768;26.198;2023-12-07T07:59:33;30.90;;;19.73;;
9248;SDS011;4660;41.768;26.198;2023-12-07T08:01:59;26.20;;;18.57;;
9248;SDS011;4660;41.768;26.198;2023-12-07T08:04:25;30.10;;;19.10;;
9248;SDS011;4660;41.768;26.198;2023-12-07T08:06:50;34.60;;;19.47;;
9248;SDS011;4660;41.768;26.198;2023-12-07T08:09:16;30.93;;;19.60;;
9248;SDS011;4660;41.768;26.198;2023-12-07T08:11:41;27.70;;;18.40;;
9248;SDS011;4660;41.768;26.198;2023-12-07T08:14:08;28.50;;;17.43;;
9248;SDS011;4660;41.768;26.198;2023-12-07T08:16:34;26.43;;;17.53;;
9248;SDS011;4660;41.768;26.198;2023-12-07T08:18:59;24.70;;;15.67;;
9248;SDS011;4660;41.768;26.198;2023-12-07T08:21:25;27.77;;;16.90;;
9248;SDS011;4660;41.768;26.198;2023-12-07T08:23:51;26.73;;;16.73;;
9248;SDS011;4660;41.768;26.198;2023-12-07T08:26:17;26.93;;;18.03;;
9248;SDS011;4660;41.768;26.198;2023-12-07T08:28:43;29.07;;;17.90;;
9248;SDS011;4660;41.768;26.198;2023-12-07T08:31:10;24.83;;;16.50;;
9248;SDS011;4660;41.768;26.198;2023-12-07T08:33:36;25.67;;;15.80;;
9248;SDS011;4660;41.768;26.198;2023-12-07T08:36:05;31.83;;;17.00;;
9248;SDS011;4660;41.768;26.198;2023-12-07T08:38:31;24.17;;;17.33;;
9248;SDS011;4660;41.768;26.198;2023-12-07T08:40:57;26.17;;;17.73;;
9248;SDS011;4660;41.768;26.198;2023-12-07T08:43:23;27.43;;;16.50;;
9248;SDS011;4660;41.768;26.198;2023-12-07T08:45:52;27.13;;;15.90;;
9248;SDS011;4660;41.768;26.198;2023-12-07T08:48:19;33.83;;;22.53;;
9248;SDS011;4660;41.768;26.198;2023-12-07T08:50:44;28.00;;;16.73;;
9248;SDS011;4660;41.768;26.198;2023-12-07T08:53:10;29.43;;;15.87;;
9248;SDS011;4660;41.768;26.198;2023-12-07T08:55:35;23.53;;;14.93;;
9248;SDS011;4660;41.768;26.198;2023-12-07T08:58:01;29.27;;;15.13;;
9248;SDS011;4660;41.768;26.198;2023-12-07T09:00:30;31.60;;;15.63;;
9248;SDS011;4660;41.768;26.198;2023-12-07T09:02:56;30.47;;;16.90;;
9248;SDS011;4660;41.768;26.198;2023-12-07T09:05:23;32.00;;;17.27;;
9248;SDS011;4660;41.768;26.198;2023-12-07T09:07:50;30.30;;;15.87;;
9248;SDS011;4660;41.768;26.198;2023-12-07T09:10:15;27.30;;;14.73;;
9248;SDS011;4660;41.768;26.198;2023-12-07T09:12:42;29.40;;;16.00;;
9248;SDS011;4660;41.768;26.198;2023-12-07T09:15:07;25.87;;;15.60;;
9248;SDS011;4660;41.768;26.198;2023-12-07T09:17:35;28.90;;;15.77;;
9248;SDS011;4660;41.768;26.198;2023-12-07T09:20:07;27.77;;;15.83;;
9248;SDS011;4660;41.768;26.198;2023-12-07T09:22:38;25.27;;;15.73;;
9248;SDS011;4660;41.768;26.198;2023-12-07T09:25:06;27.03;;;13.63;;
9248;SDS011;4660;41.768;26.198;2023-12-07T09:27:33;26.90;;;14.67;;
9248;SDS011;4660;41.768;26.198;2023-12-07T09:30:02;25.80;;;14.73;;
9248;SDS011;4660;41.768;26.198;2023-12-07T09:32:32;22.50;;;14.67;;
9248;SDS011;4660;41.768;26.198;2023-12-07T09:35:06;22.63;;;13.47;;
9248;SDS011;4660;41.768;26.198;2023-12-07T09:37:36;19.70;;;13.27;;
9248;SDS011;4660;41.768;26.198;2023-12-07T09:40:01;23.03;;;13.83;;
9248;SDS011;4660;41.768;26.198;2023-12-07T09:42:29;28.17;;;15.23;;
9248;SDS011;4660;41.768;26.198;2023-12-07T09:44:55;21.00;;;13.07;;
9248;SDS011;4660;41.768;26.198;2023-12-07T09:47:21;19.00;;;12.90;;
9248;SDS011;4660;41.768;26.198;2023-12-07T09:49:47;20.13;;;11.40;;
9248;SDS011;4660;41.768;26.198;2023-12-07T09:52:12;23.23;;;12.03;;
9248;SDS011;4660;41.768;26.198;2023-12-07T09:54:40;19.70;;;12.07;;
9248;SDS011;4660;41.768;26.198;2023-12-07T09:57:07;18.20;;;12.17;;
9248;SDS011;4660;41.768;26.198;2023-12-07T09:59:38;22.43;;;11.93;;
9248;SDS011;4660;41.768;26.198;2023-12-07T10:02:07;18.83;;;11.53;;
9248;SDS011;4660;41.768;26.198;2023-12-07T10:04:35;19.27;;;12.67;;
9248;SDS011;4660;41.768;26.198;2023-12-07T10:07:01;20.77;;;13.17;;
9248;SDS011;4660;41.768;26.198;2023-12-07T10:09:27;19.23;;;12.00;;
9248;SDS011;4660;41.768;26.198;2023-12-07T10:12:02;26.13;;;12.57;;
9248;SDS011;4660;41.768;26.198;2023-12-07T10:14:29;24.30;;;12.17;;
9248;SDS011;4660;41.768;26.198;2023-12-07T10:16:55;21.77;;;13.43;;
9248;SDS011;4660;41.768;26.198;2023-12-07T10:19:22;21.77;;;11.83;;
9248;SDS011;4660;41.768;26.198;2023-12-07T10:21:50;24.37;;;11.97;;
9248;SDS011;4660;41.768;26.198;2023-12-07T10:24:20;23.20;;;11.90;;
9248;SDS011;4660;41.768;26.198;2023-12-07T10:26:48;22.77;;;12.93;;
9248;SDS011;4660;41.768;26.198;2023-12-07T10:29:17;21.57;;;13.10;;
9248;SDS011;4660;41.768;26.198;2023-12-07T10:31:44;21.33;;;12.47;;
9248;SDS011;4660;41.768;26.198;2023-12-07T10:34:09;19.30;;;12.43;;
9248;SDS011;4660;41.768;26.198;2023-12-07T10:36:35;20.17;;;12.23;;
9248;SDS011;4660;41.768;26.198;2023-12-07T10:39:01;22.33;;;12.73;;
9248;SDS011;4660;41.768;26.198;2023-12-07T10:41:31;17.43;;;12.33;;
9248;SDS011;4660;41.768;26.198;2023-12-07T10:44:01;21.00;;;12.60;;
9248;SDS011;4660;41.768;26.198;2023-12-07T10:46:29;19.00;;;12.50;;
9248;SDS011;4660;41.768;26.198;2023-12-07T10:49:07;21.43;;;13.77;;
9248;SDS011;4660;41.768;26.198;2023-12-07T10:51:45;25.40;;;15.00;;
9248;SDS011;4660;41.768;26.198;2023-12-07T10:54:16;31.30;;;12.40;;
9248;SDS011;4660;41.768;26.198;2023-12-07T10:56:47;23.77;;;12.83;;
9248;SDS011;4660;41.768;26.198;2023-12-07T10:59:15;23.27;;;13.57;;
9248;SDS011;4660;41.768;26.198;2023-12-07T11:01:42;24.83;;;13.80;;
9248;SDS011;4660;41.768;26.198;2023-12-07T11:04:12;29.77;;;12.70;;
9248;SDS011;4660;41.768;26.198;2023-12-07T11:06:39;17.97;;;12.67;;
9248;SDS011;4660;41.768;26.198;2023-12-07T11:09:07;21.87;;;12.83;;
9248;SDS011;4660;41.768;26.198;2023-12-07T11:11:48;22.83;;;14.57;;
9248;SDS011;4660;41.768;26.198;2023-12-07T11:14:18;23.40;;;13.17;;
9248;SDS011;4660;41.768;26.198;2023-12-07T11:17:04;25.57;;;14.20;;
9248;SDS011;4660;41.768;26.198;2023-12-07T11:22:06;25.00;;;13.53;;
9248;SDS011;4660;41.768;26.198;2023-12-07T11:24:32;21.20;;;13.43;;
9248;SDS011;4660;41.768;26.198;2023-12-07T11:26:58;23.17;;;13.03;;
9248;SDS011;4660;41.768;26.198;2023-12-07T11:29:43;22.90;;;13.17;;
9248;SDS011;4660;41.768;26.198;2023-12-07T11:32:12;26.80;;;14.00;;
9248;SDS011;4660;41.768;26.198;2023-12-07T11:34:42;20.27;;;13.10;;
9248;SDS011;4660;41.768;26.198;2023-12-07T11:37:09;22.10;;;12.90;;
9248;SDS011;4660;41.768;26.198;2023-12-07T11:39:41;21.67;;;12.80;;
9248;SDS011;4660;41.768;26.198;2023-12-07T11:44:38;19.97;;;12.00;;
9248;SDS011;4660;41.768;26.198;2023-12-07T11:47:05;19.13;;;10.83;;
9248;SDS011;4660;41.768;26.198;2023-12-07T11:49:35;21.60;;;11.53;;
9248;SDS011;4660;41.768;26.198;2023-12-07T11:52:01;23.17;;;12.50;;
9248;SDS011;4660;41.768;26.198;2023-12-07T11:54:40;21.53;;;11.37;;
9248;SDS011;4660;41.768;26.198;2023-12-07T11:57:25;21.30;;;11.40;;
9248;SDS011;4660;41.768;26.198;2023-12-07T11:59:51;18.43;;;12.33;;
9248;SDS011;4660;41.768;26.198;2023-12-07T12:02:17;22.80;;;11.90;;
9248;SDS011;4660;41.768;26.198;2023-12-07T12:04:43;23.33;;;13.70;;
9248;SDS011;4660;41.768;26.198;2023-12-07T12:07:29;24.10;;;12.83;;
9248;SDS011;4660;41.768;26.198;2023-12-07T12:09:54;25.57;;;13.97;;
9248;SDS011;4660;41.768;26.198;2023-12-07T12:13:03;26.67;;;14.43;;
9248;SDS011;4660;41.768;26.198;2023-12-07T12:16:01;26.93;;;14.57;;
9248;SDS011;4660;41.768;26.198;2023-12-07T12:18:27;28.33;;;15.43;;
9248;SDS011;4660;41.768;26.198;2023-12-07T12:20:54;25.57;;;15.13;;
9248;SDS011;4660;41.768;26.198;2023-12-07T12:23:20;23.50;;;14.67;;
9248;SDS011;4660;41.768;26.198;2023-12-07T12:25:46;27.03;;;15.90;;
9248;SDS011;4660;41.768;26.198;2023-12-07T12:28:15;27.43;;;15.80;;
9248;SDS011;4660;41.768;26.198;2023-12-07T12:31:03;23.77;;;16.27;;
9248;SDS011;4660;41.768;26.198;2023-12-07T12:33:30;28.63;;;15.93;;
9248;SDS011;4660;41.768;26.198;2023-12-07T12:36:06;25.13;;;15.87;;
9248;SDS011;4660;41.768;26.198;2023-12-07T12:38:54;25.07;;;15.80;;
9248;SDS011;4660;41.768;26.198;2023-12-07T12:41:21;25.10;;;15.77;;
9248;SDS011;4660;41.768;26.198;2023-12-07T12:43:48;29.70;;;16.50;;
9248;SDS011;4660;41.768;26.198;2023-12-07T12:46:15;24.80;;;14.97;;
9248;SDS011;4660;41.768;26.198;2023-12-07T12:48:52;25.60;;;14.47;;
9248;SDS011;4660;41.768;26.198;2023-12-07T12:51:24;23.30;;;14.60;;
9248;SDS011;4660;41.768;26.198;2023-12-07T12:53:52;21.77;;;14.03;;
9248;SDS011;4660;41.768;26.198;2023-12-07T12:56:19;23.73;;;14.50;;
9248;SDS011;4660;41.768;26.198;2023-12-07T12:58:47;18.30;;;11.07;;
9248;SDS011;4660;41.768;26.198;2023-12-07T13:01:16;18.40;;;11.40;;
9248;SDS011;4660;41.768;26.198;2023-12-07T13:03:45;18.50;;;9.93;;
9248;SDS011;4660;41.768;26.198;2023-12-07T13:06:15;15.40;;;9.47;;
9248;SDS011;4660;41.768;26.198;2023-12-07T13:08:45;16.70;;;9.63;;
9248;SDS011;4660;41.768;26.198;2023-12-07T13:11:18;15.70;;;8.53;;
9248;SDS011;4660;41.768;26.198;2023-12-07T13:13:47;10.10;;;6.80;;
9248;SDS011;4660;41.768;26.198;2023-12-07T13:16:13;10.33;;;5.90;;
9248;SDS011;4660;41.768;26.198;2023-12-07T13:18:40;8.70;;;6.20;;
9248;SDS011;4660;41.768;26.198;2023-12-07T13:21:06;10.97;;;7.33;;
9248;SDS011;4660;41.768;26.198;2023-12-07T13:23:32;8.90;;;6.23;;
9248;SDS011;4660;41.768;26.198;2023-12-07T13:25:57;15.73;;;7.83;;
9248;SDS011;4660;41.768;26.198;2023-12-07T13:28:23;15.23;;;7.97;;
9248;SDS011;4660;41.768;26.198;2023-12-07T13:30:48;13.63;;;7.63;;
9248;SDS011;4660;41.768;26.198;2023-12-07T13:33:14;9.33;;;5.77;;
9248;SDS011;4660;41.768;26.198;2023-12-07T13:35:40;9.97;;;5.87;;
9248;SDS011;4660;41.768;26.198;2023-12-07T13:38:05;10.47;;;6.43;;
9248;SDS011;4660;41.768;26.198;2023-12-07T13:40:31;17.60;;;8.90;;
9248;SDS011;4660;41.768;26.198;2023-12-07T13:42:56;13.40;;;9.00;;
9248;SDS011;4660;41.768;26.198;2023-12-07T13:45:23;17.80;;;9.67;;
9248;SDS011;4660;41.768;26.198;2023-12-07T13:47:52;14.03;;;8.93;;
9248;SDS011;4660;41.768;26.198;2023-12-07T13:50:17;10.93;;;7.23;;
9248;SDS011;4660;41.768;26.198;2023-12-07T13:52:43;15.90;;;8.87;;
9248;SDS011;4660;41.768;26.198;2023-12-07T13:55:10;8.20;;;5.63;;
9248;SDS011;4660;41.768;26.198;2023-12-07T13:57:36;17.07;;;8.50;;
9248;SDS011;4660;41.768;26.198;2023-12-07T14:00:02;5.10;;;3.77;;
9248;SDS011;4660;41.768;26.198;2023-12-07T14:02:47;5.13;;;3.87;;
9248;SDS011;4660;41.768;26.198;2023-12-07T14:05:13;4.33;;;3.50;;
9248;SDS011;4660;41.768;26.198;2023-12-07T14:07:38;4.83;;;3.70;;
9248;SDS011;4660;41.768;26.198;2023-12-07T14:10:04;14.37;;;9.67;;
9248;SDS011;4660;41.768;26.198;2023-12-07T14:12:30;5.63;;;5.03;;
9248;SDS011;4660;41.768;26.198;2023-12-07T14:14:58;5.70;;;4.00;;
9248;SDS011;4660;41.768;26.198;2023-12-07T14:17:24;6.73;;;4.27;;
9248;SDS011;4660;41.768;26.198;2023-12-07T14:20:12;6.87;;;4.00;;
9248;SDS011;4660;41.768;26.198;2023-12-07T14:22:39;5.83;;;3.73;;
9248;SDS011;4660;41.768;26.198;2023-12-07T14:25:05;6.40;;;3.90;;
9248;SDS011;4660;41.768;26.198;2023-12-07T14:27:31;6.90;;;3.63;;
9248;SDS011;4660;41.768;26.198;2023-12-07T14:29:56;6.97;;;3.27;;
9248;SDS011;4660;41.768;26.198;2023-12-07T14:32:24;5.20;;;3.63;;
9248;SDS011;4660;41.768;26.198;2023-12-07T14:34:50;5.57;;;4.57;;
9248;SDS011;4660;41.768;26.198;2023-12-07T14:37:18;6.33;;;4.70;;
9248;SDS011;4660;41.768;26.198;2023-12-07T14:39:43;4.03;;;3.07;;
9248;SDS011;4660;41.768;26.198;2023-12-07T14:42:09;4.90;;;3.80;;
9248;SDS011;4660;41.768;26.198;2023-12-07T14:44:35;7.67;;;3.23;;